Terminal Aerodrome Forecast
Issued by NWS Chicago, IL

Home | Current Version | Previous Version | Graphics & Text | Print | Product List | Glossary On
Versions: 1 2 3 4 5 6 7 8 9 10 11 12 13 14 15 16 17 18 19 20 21 22 23 24 25
000
FTUS43 KLOT 272103 AAC
TAFRFD
TAF AMD
KRFD 272103Z 2721/2818 18013G20KT P6SM VCSH BKN040 BKN100
      TEMPO 2721/2723 3SM SHRA OVC040
     FM280000 18009KT P6SM SCT020 OVC030
     FM280800 17010KT 6SM BR OVC010
     FM281500 20013KT P6SM VCSH BKN040=

USA.gov is the U.S. government's official web portal to all federal, state and local government web resources and services.